sensor_id;sensor_type;location;lat;lon;timestamp;pressure;altitude;pressure_sealevel;temperature;humidity
41254;BME280;26987;59.928;30.306;2022-08-21T00:01:53;101935.75;;;17.13;62.33
41254;BME280;26987;59.928;30.306;2022-08-21T00:04:21;101931.59;;;17.10;62.43
41254;BME280;26987;59.928;30.306;2022-08-21T00:06:49;101941.16;;;17.13;62.28
41254;BME280;26987;59.928;30.306;2022-08-21T00:09:18;101943.03;;;17.12;62.68
41254;BME280;26987;59.928;30.306;2022-08-21T00:11:47;101936.19;;;17.10;62.61
41254;BME280;26987;59.928;30.306;2022-08-21T00:14:15;101942.03;;;17.07;63.20
41254;BME280;26987;59.928;30.306;2022-08-21T00:16:43;101914.44;;;16.91;63.30
41254;BME280;26987;59.928;30.306;2022-08-21T00:19:13;101932.69;;;17.02;63.25
41254;BME280;26987;59.928;30.306;2022-08-21T00:21:41;101936.22;;;17.03;63.29
41254;BME280;26987;59.928;30.306;2022-08-21T00:24:09;101931.25;;;17.00;63.56
41254;BME280;26987;59.928;30.306;2022-08-21T00:26:37;101932.53;;;16.97;63.64
41254;BME280;26987;59.928;30.306;2022-08-21T00:29:05;101930.47;;;16.93;63.82
41254;BME280;26987;59.928;30.306;2022-08-21T00:31:33;101924.22;;;16.92;64.21
41254;BME280;26987;59.928;30.306;2022-08-21T00:34:01;101928.03;;;16.84;64.33
41254;BME280;26987;59.928;30.306;2022-08-21T00:36:31;101927.59;;;16.87;64.31
41254;BME280;26987;59.928;30.306;2022-08-21T00:38:59;101919.91;;;16.84;64.36
41254;BME280;26987;59.928;30.306;2022-08-21T00:41:27;101917.84;;;16.80;64.70
41254;BME280;26987;59.928;30.306;2022-08-21T00:43:55;101921.00;;;16.76;64.86
41254;BME280;26987;59.928;30.306;2022-08-21T00:46:23;101925.19;;;16.72;65.27
41254;BME280;26987;59.928;30.306;2022-08-21T00:48:51;101921.88;;;16.70;65.42
41254;BME280;26987;59.928;30.306;2022-08-21T00:51:21;101922.72;;;16.71;65.37
41254;BME280;26987;59.928;30.306;2022-08-21T00:53:57;101923.16;;;16.68;65.45
41254;BME280;26987;59.928;30.306;2022-08-21T00:56:27;101920.72;;;16.59;65.61
41254;BME280;26987;59.928;30.306;2022-08-21T00:58:56;101934.41;;;16.64;65.55
41254;BME280;26987;59.928;30.306;2022-08-21T01:01:26;101929.06;;;16.58;65.77
41254;BME280;26987;59.928;30.306;2022-08-21T01:03:55;101932.56;;;16.58;65.81
41254;BME280;26987;59.928;30.306;2022-08-21T01:06:22;101933.69;;;16.50;66.02
41254;BME280;26987;59.928;30.306;2022-08-21T01:08:50;101934.47;;;16.58;65.84
41254;BME280;26987;59.928;30.306;2022-08-21T01:11:20;101925.72;;;16.56;65.96
41254;BME280;26987;59.928;30.306;2022-08-21T01:13:48;101939.03;;;16.57;65.81
41254;BME280;26987;59.928;30.306;2022-08-21T01:16:20;101926.00;;;16.47;65.85
41254;BME280;26987;59.928;30.306;2022-08-21T01:18:49;101932.63;;;16.51;65.76
41254;BME280;26987;59.928;30.306;2022-08-21T01:21:21;101913.34;;;16.41;65.82
41254;BME280;26987;59.928;30.306;2022-08-21T01:23:51;101920.41;;;16.42;65.54
41254;BME280;26987;59.928;30.306;2022-08-21T01:26:23;101933.50;;;16.45;65.73
41254;BME280;26987;59.928;30.306;2022-08-21T01:28:55;101925.22;;;16.40;65.75
41254;BME280;26987;59.928;30.306;2022-08-21T01:31:27;101919.19;;;16.38;65.91
41254;BME280;26987;59.928;30.306;2022-08-21T01:33:56;101894.28;;;16.22;65.75
41254;BME280;26987;59.928;30.306;2022-08-21T01:36:26;101916.91;;;16.35;65.90
41254;BME280;26987;59.928;30.306;2022-08-21T01:38:54;101910.28;;;16.31;66.00
41254;BME280;26987;59.928;30.306;2022-08-21T01:41:22;101915.47;;;16.32;66.09
41254;BME280;26987;59.928;30.306;2022-08-21T01:43:50;101916.28;;;16.33;65.71
41254;BME280;26987;59.928;30.306;2022-08-21T01:46:18;101914.63;;;16.32;66.19
41254;BME280;26987;59.928;30.306;2022-08-21T01:48:46;101906.94;;;16.29;66.27
41254;BME280;26987;59.928;30.306;2022-08-21T01:51:14;101905.88;;;16.30;66.35
41254;BME280;26987;59.928;30.306;2022-08-21T01:53:43;101902.81;;;16.26;66.45
41254;BME280;26987;59.928;30.306;2022-08-21T01:56:14;101911.75;;;16.26;66.53
41254;BME280;26987;59.928;30.306;2022-08-21T01:58:44;101905.09;;;16.22;66.80
41254;BME280;26987;59.928;30.306;2022-08-21T02:01:12;101906.56;;;16.25;66.88
41254;BME280;26987;59.928;30.306;2022-08-21T02:03:40;101904.06;;;16.23;67.13
41254;BME280;26987;59.928;30.306;2022-08-21T02:06:13;101904.06;;;16.23;67.13
41254;BME280;26987;59.928;30.306;2022-08-21T02:08:45;101906.28;;;16.33;66.55
41254;BME280;26987;59.928;30.306;2022-08-21T02:11:13;101907.63;;;16.17;67.84
41254;BME280;26987;59.928;30.306;2022-08-21T02:13:41;101898.50;;;16.11;68.29
41254;BME280;26987;59.928;30.306;2022-08-21T02:16:09;101881.50;;;15.97;68.52
41254;BME280;26987;59.928;30.306;2022-08-21T02:18:38;101878.59;;;15.92;68.40
41254;BME280;26987;59.928;30.306;2022-08-21T02:21:06;101900.63;;;16.02;68.78
41254;BME280;26987;59.928;30.306;2022-08-21T02:23:34;101899.38;;;15.98;69.18
41254;BME280;26987;59.928;30.306;2022-08-21T02:26:06;101891.06;;;15.93;69.18
41254;BME280;26987;59.928;30.306;2022-08-21T02:28:34;101898.59;;;15.98;69.59
41254;BME280;26987;59.928;30.306;2022-08-21T02:31:03;101894.81;;;15.92;69.93
41254;BME280;26987;59.928;30.306;2022-08-21T02:33:31;101890.66;;;15.89;69.87
41254;BME280;26987;59.928;30.306;2022-08-21T02:36:00;101901.47;;;15.89;70.17
41254;BME280;26987;59.928;30.306;2022-08-21T02:38:30;101896.91;;;15.90;70.49
41254;BME280;26987;59.928;30.306;2022-08-21T02:41:00;101890.25;;;15.86;70.46
41254;BME280;26987;59.928;30.306;2022-08-21T02:43:29;101899.63;;;15.90;70.55
41254;BME280;26987;59.928;30.306;2022-08-21T02:45:57;101892.78;;;15.81;70.60
41254;BME280;26987;59.928;30.306;2022-08-21T02:48:27;101897.94;;;15.89;70.79
41254;BME280;26987;59.928;30.306;2022-08-21T02:51:05;101891.72;;;15.82;70.58
41254;BME280;26987;59.928;30.306;2022-08-21T02:53:34;101900.03;;;15.87;70.88
41254;BME280;26987;59.928;30.306;2022-08-21T02:56:05;101901.06;;;15.86;71.04
41254;BME280;26987;59.928;30.306;2022-08-21T02:58:39;101908.31;;;15.92;70.90
41254;BME280;26987;59.928;30.306;2022-08-21T03:01:08;101901.06;;;15.93;71.00
41254;BME280;26987;59.928;30.306;2022-08-21T03:03:37;101897.56;;;15.85;71.25
41254;BME280;26987;59.928;30.306;2022-08-21T03:06:07;101908.75;;;15.89;71.41
41254;BME280;26987;59.928;30.306;2022-08-21T03:08:35;101912.72;;;15.93;71.17
41254;BME280;26987;59.928;30.306;2022-08-21T03:11:04;101903.97;;;15.91;71.37
41254;BME280;26987;59.928;30.306;2022-08-21T03:13:32;101904.59;;;15.93;71.21
41254;BME280;26987;59.928;30.306;2022-08-21T03:16:02;101908.13;;;16.00;71.22
41254;BME280;26987;59.928;30.306;2022-08-21T03:18:30;101904.78;;;16.05;71.32
41254;BME280;26987;59.928;30.306;2022-08-21T03:20:58;101903.09;;;16.11;71.04
41254;BME280;26987;59.928;30.306;2022-08-21T03:23:26;101900.53;;;16.16;71.13
41254;BME280;26987;59.928;30.306;2022-08-21T03:25:53;101900.31;;;16.24;71.05
41254;BME280;26987;59.928;30.306;2022-08-21T03:28:22;101897.97;;;16.28;70.97
41254;BME280;26987;59.928;30.306;2022-08-21T03:30:51;101896.75;;;16.31;70.93
41254;BME280;26987;59.928;30.306;2022-08-21T03:33:21;101897.56;;;16.31;70.97
41254;BME280;26987;59.928;30.306;2022-08-21T03:35:56;101895.69;;;16.32;71.16
41254;BME280;26987;59.928;30.306;2022-08-21T03:38:28;101899.81;;;16.34;71.22
41254;BME280;26987;59.928;30.306;2022-08-21T03:40:58;101891.91;;;16.39;71.04
41254;BME280;26987;59.928;30.306;2022-08-21T03:43:26;101894.31;;;16.55;70.33
41254;BME280;26987;59.928;30.306;2022-08-21T03:45:54;101892.66;;;17.05;68.70
41254;BME280;26987;59.928;30.306;2022-08-21T03:48:23;101891.94;;;17.91;65.13
41254;BME280;26987;59.928;30.306;2022-08-21T03:50:52;101887.28;;;18.60;62.70
41254;BME280;26987;59.928;30.306;2022-08-21T03:53:20;101893.72;;;19.25;59.72
41254;BME280;26987;59.928;30.306;2022-08-21T03:55:50;101886.59;;;19.89;57.49
41254;BME280;26987;59.928;30.306;2022-08-21T03:58:21;101894.41;;;20.44;55.56
41254;BME280;26987;59.928;30.306;2022-08-21T04:00:53;101900.81;;;20.84;54.00
41254;BME280;26987;59.928;30.306;2022-08-21T04:03:24;101888.91;;;21.08;53.28
41254;BME280;26987;59.928;30.306;2022-08-21T04:05:52;101897.09;;;21.47;51.92
41254;BME280;26987;59.928;30.306;2022-08-21T04:08:20;101904.84;;;22.00;50.08
41254;BME280;26987;59.928;30.306;2022-08-21T04:10:50;101894.09;;;22.49;48.87
41254;BME280;26987;59.928;30.306;2022-08-21T04:13:18;101904.03;;;22.93;47.99
41254;BME280;26987;59.928;30.306;2022-08-21T04:15:47;101905.97;;;23.41;46.58
41254;BME280;26987;59.928;30.306;2022-08-21T04:18:14;101906.63;;;23.64;46.12
41254;BME280;26987;59.928;30.306;2022-08-21T04:20:45;101909.28;;;24.33;45.14
41254;BME280;26987;59.928;30.306;2022-08-21T04:23:13;101907.66;;;24.58;43.88
41254;BME280;26987;59.928;30.306;2022-08-21T04:25:41;101913.41;;;24.62;44.11
41254;BME280;26987;59.928;30.306;2022-08-21T04:28:09;101908.75;;;24.57;43.71
41254;BME280;26987;59.928;30.306;2022-08-21T04:30:37;101875.84;;;24.83;43.00
41254;BME280;26987;59.928;30.306;2022-08-21T04:33:05;101902.88;;;25.37;42.21
41254;BME280;26987;59.928;30.306;2022-08-21T04:35:33;101887.16;;;25.63;41.44
41254;BME280;26987;59.928;30.306;2022-08-21T04:38:03;101897.06;;;26.04;40.83
41254;BME280;26987;59.928;30.306;2022-08-21T04:40:31;101891.16;;;26.32;39.88
41254;BME280;26987;59.928;30.306;2022-08-21T04:43:02;101900.56;;;26.55;39.36
41254;BME280;26987;59.928;30.306;2022-08-21T04:45:34;101899.47;;;26.16;40.00
41254;BME280;26987;59.928;30.306;2022-08-21T04:48:04;101908.41;;;25.98;39.72
41254;BME280;26987;59.928;30.306;2022-08-21T04:50:37;101894.53;;;25.73;40.47
41254;BME280;26987;59.928;30.306;2022-08-21T04:53:12;101890.97;;;25.67;40.97
41254;BME280;26987;59.928;30.306;2022-08-21T04:55:41;101886.59;;;25.66;40.47
41254;BME280;26987;59.928;30.306;2022-08-21T04:58:11;101904.72;;;25.57;40.73
41254;BME280;26987;59.928;30.306;2022-08-21T05:00:40;101895.38;;;25.68;40.43
41254;BME280;26987;59.928;30.306;2022-08-21T05:03:09;101895.44;;;26.09;39.97
41254;BME280;26987;59.928;30.306;2022-08-21T05:05:39;101887.69;;;26.16;39.81
41254;BME280;26987;59.928;30.306;2022-08-21T05:08:09;101894.00;;;26.81;39.04
41254;BME280;26987;59.928;30.306;2022-08-21T05:10:40;101890.69;;;26.84;38.26
41254;BME280;26987;59.928;30.306;2022-08-21T05:13:09;101889.78;;;26.64;39.39
41254;BME280;26987;59.928;30.306;2022-08-21T05:15:38;101888.63;;;27.25;37.95
41254;BME280;26987;59.928;30.306;2022-08-21T05:18:06;101885.78;;;27.54;37.46
41254;BME280;26987;59.928;30.306;2022-08-21T05:20:35;101880.84;;;27.32;37.76
41254;BME280;26987;59.928;30.306;2022-08-21T05:23:08;101884.97;;;27.54;37.92
41254;BME280;26987;59.928;30.306;2022-08-21T05:25:37;101892.47;;;27.92;36.93
41254;BME280;26987;59.928;30.306;2022-08-21T05:28:05;101879.59;;;27.87;37.04
41254;BME280;26987;59.928;30.306;2022-08-21T05:30:33;101884.81;;;27.64;37.36
41254;BME280;26987;59.928;30.306;2022-08-21T05:33:03;101885.19;;;27.57;37.93
41254;BME280;26987;59.928;30.306;2022-08-21T05:35:32;101831.09;;;26.74;38.76
41254;BME280;26987;59.928;30.306;2022-08-21T05:38:00;101877.09;;;25.32;42.04
41254;BME280;26987;59.928;30.306;2022-08-21T05:40:30;101879.13;;;24.28;44.53
41254;BME280;26987;59.928;30.306;2022-08-21T05:42:58;101862.59;;;23.12;47.54
41254;BME280;26987;59.928;30.306;2022-08-21T05:45:29;101866.72;;;22.11;50.57
41254;BME280;26987;59.928;30.306;2022-08-21T05:47:57;101857.97;;;21.19;54.11
41254;BME280;26987;59.928;30.306;2022-08-21T05:50:25;101863.47;;;20.50;57.59
41254;BME280;26987;59.928;30.306;2022-08-21T05:52:53;101858.13;;;20.09;59.64
41254;BME280;26987;59.928;30.306;2022-08-21T05:55:22;101861.56;;;19.75;61.39
41254;BME280;26987;59.928;30.306;2022-08-21T05:57:51;101842.50;;;19.34;62.52
41254;BME280;26987;59.928;30.306;2022-08-21T06:00:19;101861.22;;;19.19;63.87
41254;BME280;26987;59.928;30.306;2022-08-21T06:02:49;101852.34;;;19.23;63.87
41254;BME280;26987;59.928;30.306;2022-08-21T06:05:17;101852.31;;;18.99;65.01
41254;BME280;26987;59.928;30.306;2022-08-21T06:07:45;101860.59;;;19.04;65.21
41254;BME280;26987;59.928;30.306;2022-08-21T06:10:13;101855.28;;;18.98;65.30
41254;BME280;26987;59.928;30.306;2022-08-21T06:12:41;101861.06;;;18.89;65.66
41254;BME280;26987;59.928;30.306;2022-08-21T06:15:11;101851.38;;;18.82;66.08
41254;BME280;26987;59.928;30.306;2022-08-21T06:17:38;101852.91;;;18.65;66.77
41254;BME280;26987;59.928;30.306;2022-08-21T06:20:07;101850.44;;;18.64;67.07
41254;BME280;26987;59.928;30.306;2022-08-21T06:22:35;101843.00;;;18.71;67.22
41254;BME280;26987;59.928;30.306;2022-08-21T06:25:04;101847.50;;;18.77;67.18
41254;BME280;26987;59.928;30.306;2022-08-21T06:27:32;101846.88;;;18.75;66.83
41254;BME280;26987;59.928;30.306;2022-08-21T06:30:00;101838.97;;;18.74;66.81
41254;BME280;26987;59.928;30.306;2022-08-21T06:32:30;101846.06;;;18.63;67.71
41254;BME280;26987;59.928;30.306;2022-08-21T06:34:58;101842.63;;;18.56;68.00
41254;BME280;26987;59.928;30.306;2022-08-21T06:37:26;101844.63;;;18.48;68.46
41254;BME280;26987;59.928;30.306;2022-08-21T06:39:55;101840.25;;;18.47;68.67
41254;BME280;26987;59.928;30.306;2022-08-21T06:42:23;101841.31;;;18.46;69.02
41254;BME280;26987;59.928;30.306;2022-08-21T06:44:51;101831.25;;;18.35;69.03
41254;BME280;26987;59.928;30.306;2022-08-21T06:47:18;101830.41;;;18.22;69.67
41254;BME280;26987;59.928;30.306;2022-08-21T06:49:48;101828.16;;;18.19;70.01
41254;BME280;26987;59.928;30.306;2022-08-21T06:52:16;101831.19;;;18.11;70.23
41254;BME280;26987;59.928;30.306;2022-08-21T06:54:43;101824.16;;;18.03;70.95
41254;BME280;26987;59.928;30.306;2022-08-21T06:57:11;101822.91;;;18.06;70.93
41254;BME280;26987;59.928;30.306;2022-08-21T06:59:39;101814.84;;;17.99;71.14
41254;BME280;26987;59.928;30.306;2022-08-21T07:02:07;101819.91;;;17.95;71.55
41254;BME280;26987;59.928;30.306;2022-08-21T07:04:35;101806.28;;;17.83;72.33
41254;BME280;26987;59.928;30.306;2022-08-21T07:07:05;101811.41;;;17.92;71.83
41254;BME280;26987;59.928;30.306;2022-08-21T07:09:32;101803.03;;;17.93;71.75
41254;BME280;26987;59.928;30.306;2022-08-21T07:12:02;101813.88;;;17.93;72.05
41254;BME280;26987;59.928;30.306;2022-08-21T07:14:30;101804.06;;;17.80;72.32
41254;BME280;26987;59.928;30.306;2022-08-21T07:16:58;101806.16;;;17.78;72.74
41254;BME280;26987;59.928;30.306;2022-08-21T07:19:27;101811.03;;;17.88;72.40
41254;BME280;26987;59.928;30.306;2022-08-21T07:21:57;101803.31;;;18.03;71.80
41254;BME280;26987;59.928;30.306;2022-08-21T07:24:27;101798.03;;;18.09;71.47
41254;BME280;26987;59.928;30.306;2022-08-21T07:26:55;101794.09;;;18.05;71.76
41254;BME280;26987;59.928;30.306;2022-08-21T07:29:23;101788.97;;;18.15;71.29
41254;BME280;26987;59.928;30.306;2022-08-21T07:31:51;101787.69;;;18.18;71.06
41254;BME280;26987;59.928;30.306;2022-08-21T07:34:19;101784.00;;;18.12;71.23
41254;BME280;26987;59.928;30.306;2022-08-21T07:36:47;101781.09;;;17.95;72.23
41254;BME280;26987;59.928;30.306;2022-08-21T07:39:15;101779.81;;;17.97;72.18
41254;BME280;26987;59.928;30.306;2022-08-21T07:41:45;101777.69;;;17.99;72.25
41254;BME280;26987;59.928;30.306;2022-08-21T07:44:13;101777.09;;;17.97;72.07
41254;BME280;26987;59.928;30.306;2022-08-21T07:46:40;101773.91;;;18.00;72.10
41254;BME280;26987;59.928;30.306;2022-08-21T07:49:08;101777.09;;;17.97;72.36
41254;BME280;26987;59.928;30.306;2022-08-21T07:51:36;101779.81;;;17.97;72.36
41254;BME280;26987;59.928;30.306;2022-08-21T07:54:05;101781.22;;;18.00;72.25
41254;BME280;26987;59.928;30.306;2022-08-21T07:56:33;101768.13;;;17.97;72.29
41254;BME280;26987;59.928;30.306;2022-08-21T07:59:02;101775.72;;;18.07;72.25
41254;BME280;26987;59.928;30.306;2022-08-21T08:01:30;101781.69;;;18.27;71.75
41254;BME280;26987;59.928;30.306;2022-08-21T08:03:58;101775.78;;;18.43;70.78
41254;BME280;26987;59.928;30.306;2022-08-21T08:06:26;101777.44;;;18.56;70.03
41254;BME280;26987;59.928;30.306;2022-08-21T08:08:54;101770.13;;;18.68;69.74
41254;BME280;26987;59.928;30.306;2022-08-21T08:11:22;101767.16;;;18.82;69.39
41254;BME280;26987;59.928;30.306;2022-08-21T08:13:51;101764.31;;;19.00;69.07
41254;BME280;26987;59.928;30.306;2022-08-21T08:16:20;101766.41;;;19.22;67.91
41254;BME280;26987;59.928;30.306;2022-08-21T08:18:48;101767.41;;;19.45;67.23
41254;BME280;26987;59.928;30.306;2022-08-21T08:21:18;101737.41;;;19.40;66.47
41254;BME280;26987;59.928;30.306;2022-08-21T08:23:47;101763.03;;;19.73;65.85
41254;BME280;26987;59.928;30.306;2022-08-21T08:26:15;101759.69;;;19.83;65.73
41254;BME280;26987;59.928;30.306;2022-08-21T08:28:43;101753.34;;;19.95;64.78
41254;BME280;26987;59.928;30.306;2022-08-21T08:31:13;101753.09;;;19.96;64.75
41254;BME280;26987;59.928;30.306;2022-08-21T08:33:42;101763.06;;;19.90;64.82
41254;BME280;26987;59.928;30.306;2022-08-21T08:36:15;101731.06;;;19.81;65.22
41254;BME280;26987;59.928;30.306;2022-08-21T08:38:43;101739.97;;;19.76;65.38
41254;BME280;26987;59.928;30.306;2022-08-21T08:41:13;101736.34;;;19.87;65.41
41254;BME280;26987;59.928;30.306;2022-08-21T08:43:47;101685.13;;;19.67;64.64
41254;BME280;26987;59.928;30.306;2022-08-21T08:46:19;101732.25;;;20.02;64.79
41254;BME280;26987;59.928;30.306;2022-08-21T08:48:53;101735.19;;;20.00;65.24
41254;BME280;26987;59.928;30.306;2022-08-21T08:51:24;101743.97;;;20.37;63.87
41254;BME280;26987;59.928;30.306;2022-08-21T08:53:57;101746.78;;;20.42;63.53
41254;BME280;26987;59.928;30.306;2022-08-21T08:56:30;101741.50;;;20.35;63.53
41254;BME280;26987;59.928;30.306;2022-08-21T08:59:02;101735.47;;;20.50;63.12
41254;BME280;26987;59.928;30.306;2022-08-21T09:01:30;101736.94;;;20.58;62.67
41254;BME280;26987;59.928;30.306;2022-08-21T09:04:00;101733.53;;;20.68;62.59
41254;BME280;26987;59.928;30.306;2022-08-21T09:06:37;101724.13;;;20.98;61.84
41254;BME280;26987;59.928;30.306;2022-08-21T09:09:25;101737.00;;;21.03;61.21
41254;BME280;26987;59.928;30.306;2022-08-21T09:12:01;101719.19;;;20.95;61.66
41254;BME280;26987;59.928;30.306;2022-08-21T09:14:43;101727.16;;;21.24;60.83
41254;BME280;26987;59.928;30.306;2022-08-21T09:17:25;101716.78;;;20.99;61.17
41254;BME280;26987;59.928;30.306;2022-08-21T09:20:12;101722.41;;;20.92;62.09
41254;BME280;26987;59.928;30.306;2022-08-21T09:22:48;101735.63;;;21.00;61.76
41254;BME280;26987;59.928;30.306;2022-08-21T09:25:22;101724.44;;;20.79;61.81
41254;BME280;26987;59.928;30.306;2022-08-21T09:27:51;101725.84;;;20.65;63.02
41254;BME280;26987;59.928;30.306;2022-08-21T09:30:25;101723.41;;;20.86;62.13
41254;BME280;26987;59.928;30.306;2022-08-21T09:32:54;101718.59;;;20.71;62.34
41254;BME280;26987;59.928;30.306;2022-08-21T09:35:24;101716.75;;;20.76;62.83
41254;BME280;26987;59.928;30.306;2022-08-21T09:37:54;101725.06;;;20.87;62.36
41254;BME280;26987;59.928;30.306;2022-08-21T09:40:32;101710.91;;;20.67;62.81
41254;BME280;26987;59.928;30.306;2022-08-21T09:43:03;101706.00;;;20.47;63.74
41254;BME280;26987;59.928;30.306;2022-08-21T09:45:32;101713.88;;;20.09;65.19
41254;BME280;26987;59.928;30.306;2022-08-21T09:48:14;101714.63;;;20.22;65.28
41254;BME280;26987;59.928;30.306;2022-08-21T09:50:45;101704.41;;;20.12;65.65
41254;BME280;26987;59.928;30.306;2022-08-21T09:53:17;101696.94;;;20.41;64.96
41254;BME280;26987;59.928;30.306;2022-08-21T09:55:51;101696.97;;;20.64;64.16
41254;BME280;26987;59.928;30.306;2022-08-21T09:58:39;101703.06;;;20.71;63.68
41254;BME280;26987;59.928;30.306;2022-08-21T10:01:13;101686.19;;;20.91;63.47
41254;BME280;26987;59.928;30.306;2022-08-21T10:03:42;101692.75;;;21.18;62.37
41254;BME280;26987;59.928;30.306;2022-08-21T10:06:22;101691.31;;;21.65;61.22
41254;BME280;26987;59.928;30.306;2022-08-21T10:08:50;101681.09;;;21.55;60.68
41254;BME280;26987;59.928;30.306;2022-08-21T10:11:24;101687.81;;;21.42;61.23
41254;BME280;26987;59.928;30.306;2022-08-21T10:14:01;101688.94;;;21.19;62.37
41254;BME280;26987;59.928;30.306;2022-08-21T10:16:36;101681.78;;;21.40;62.51
41254;BME280;26987;59.928;30.306;2022-08-21T10:19:17;101685.72;;;21.77;60.73
41254;BME280;26987;59.928;30.306;2022-08-21T10:21:59;101689.38;;;21.93;60.27
41254;BME280;26987;59.928;30.306;2022-08-21T10:24:32;101683.13;;;21.98;59.73
41254;BME280;26987;59.928;30.306;2022-08-21T10:27:10;101678.97;;;21.85;60.00
41254;BME280;26987;59.928;30.306;2022-08-21T10:29:51;101696.81;;;22.03;60.16
41254;BME280;26987;59.928;30.306;2022-08-21T10:35:17;101677.75;;;22.09;59.05
41254;BME280;26987;59.928;30.306;2022-08-21T10:40:44;101659.88;;;21.63;60.35
41254;BME280;26987;59.928;30.306;2022-08-21T10:43:22;101686.72;;;22.04;60.11
41254;BME280;26987;59.928;30.306;2022-08-21T10:45:59;101659.09;;;21.95;59.68
41254;BME280;26987;59.928;30.306;2022-08-21T10:48:33;101671.25;;;22.20;59.66
41254;BME280;26987;59.928;30.306;2022-08-21T10:51:07;101681.44;;;22.30;59.17
41254;BME280;26987;59.928;30.306;2022-08-21T10:53:47;101677.94;;;22.40;58.61
41254;BME280;26987;59.928;30.306;2022-08-21T10:56:21;101677.22;;;22.12;59.30
41254;BME280;26987;59.928;30.306;2022-08-21T10:58:58;101662.41;;;22.02;59.64
41254;BME280;26987;59.928;30.306;2022-08-21T11:01:31;101676.38;;;22.06;59.78
41254;BME280;26987;59.928;30.306;2022-08-21T11:04:11;101679.91;;;22.07;60.12
41254;BME280;26987;59.928;30.306;2022-08-21T11:06:45;101671.88;;;21.57;61.84
41254;BME280;26987;59.928;30.306;2022-08-21T11:09:19;101655.81;;;21.33;62.36
41254;BME280;26987;59.928;30.306;2022-08-21T11:11:50;101664.81;;;21.66;62.39
41254;BME280;26987;59.928;30.306;2022-08-21T11:14:25;101658.84;;;21.97;60.93
41254;BME280;26987;59.928;30.306;2022-08-21T11:17:02;101652.69;;;21.79;61.49
41254;BME280;26987;59.928;30.306;2022-08-21T11:19:38;101668.25;;;21.78;61.67
41254;BME280;26987;59.928;30.306;2022-08-21T11:22:14;101644.19;;;21.75;61.93
41254;BME280;26987;59.928;30.306;2022-08-21T11:24:50;101655.84;;;21.98;61.57
41254;BME280;26987;59.928;30.306;2022-08-21T11:27:25;101662.72;;;22.06;61.36
41254;BME280;26987;59.928;30.306;2022-08-21T11:29:55;101656.88;;;21.87;62.31
41254;BME280;26987;59.928;30.306;2022-08-21T11:32:36;101650.72;;;21.74;62.38
41254;BME280;26987;59.928;30.306;2022-08-21T11:35:12;101651.63;;;21.52;63.65
41254;BME280;26987;59.928;30.306;2022-08-21T11:37:53;101645.53;;;21.40;63.96
41254;BME280;26987;59.928;30.306;2022-08-21T11:40:37;101640.69;;;21.47;64.33
41254;BME280;26987;59.928;30.306;2022-08-21T11:43:17;101644.41;;;21.68;64.76
41254;BME280;26987;59.928;30.306;2022-08-21T11:45:52;101640.50;;;21.92;62.59
41254;BME280;26987;59.928;30.306;2022-08-21T11:48:33;101635.00;;;22.30;61.45
41254;BME280;26987;59.928;30.306;2022-08-21T11:51:07;101637.63;;;22.58;60.35
41254;BME280;26987;59.928;30.306;2022-08-21T11:53:40;101637.31;;;22.54;60.48
41254;BME280;26987;59.928;30.306;2022-08-21T11:56:22;101635.94;;;22.51;60.65
41254;BME280;26987;59.928;30.306;2022-08-21T11:58:56;101628.19;;;22.33;61.18
41254;BME280;26987;59.928;30.306;2022-08-21T12:01:29;101621.63;;;22.34;61.77
41254;BME280;26987;59.928;30.306;2022-08-21T12:04:01;101630.38;;;22.36;61.38
41254;BME280;26987;59.928;30.306;2022-08-21T12:06:32;101628.97;;;22.28;61.60
41254;BME280;26987;59.928;30.306;2022-08-21T12:09:03;101624.81;;;22.15;61.50
41254;BME280;26987;59.928;30.306;2022-08-21T12:11:46;101642.09;;;22.26;61.38
41254;BME280;26987;59.928;30.306;2022-08-21T12:14:16;101611.56;;;21.91;62.75
41254;BME280;26987;59.928;30.306;2022-08-21T12:16:46;101637.94;;;22.18;61.92
41254;BME280;26987;59.928;30.306;2022-08-21T12:19:29;101646.22;;;22.34;61.71
41254;BME280;26987;59.928;30.306;2022-08-21T12:22:06;101612.78;;;22.11;61.26
41254;BME280;26987;59.928;30.306;2022-08-21T12:24:37;101641.22;;;22.20;61.22
41254;BME280;26987;59.928;30.306;2022-08-21T12:27:25;101631.38;;;22.14;61.66
41254;BME280;26987;59.928;30.306;2022-08-21T12:29:56;101591.22;;;21.71;62.30
41254;BME280;26987;59.928;30.306;2022-08-21T12:32:29;101637.63;;;22.14;61.91
41254;BME280;26987;59.928;30.306;2022-08-21T12:35:02;101644.47;;;22.12;61.86
41254;BME280;26987;59.928;30.306;2022-08-21T12:37:37;101641.16;;;22.10;62.00
41254;BME280;26987;59.928;30.306;2022-08-21T12:40:13;101653.19;;;22.09;61.86
41254;BME280;26987;59.928;30.306;2022-08-21T12:42:50;101648.25;;;22.05;62.13
41254;BME280;26987;59.928;30.306;2022-08-21T12:45:22;101644.91;;;21.98;62.28
41254;BME280;26987;59.928;30.306;2022-08-21T12:47:57;101647.72;;;22.09;62.03
41254;BME280;26987;59.928;30.306;2022-08-21T12:50:34;101649.41;;;22.20;61.19
41254;BME280;26987;59.928;30.306;2022-08-21T12:53:07;101644.56;;;22.27;60.88
41254;BME280;26987;59.928;30.306;2022-08-21T12:55:41;101632.56;;;22.34;60.17
41254;BME280;26987;59.928;30.306;2022-08-21T12:58:18;101603.34;;;22.34;60.28
41254;BME280;26987;59.928;30.306;2022-08-21T13:00:52;101635.19;;;22.61;59.66
41254;BME280;26987;59.928;30.306;2022-08-21T13:03:21;101640.69;;;22.66;58.78
41254;BME280;26987;59.928;30.306;2022-08-21T13:05:50;101636.59;;;22.74;58.58